sensor_id;sensor_type;location;lat;lon;timestamp;P1;durP1;ratioP1;P2;durP2;ratioP2
5054;SDS011;13829;48.990;8.346;2023-09-30T00:00:00;4.50;;;2.42;;
5054;SDS011;13829;48.990;8.346;2023-09-30T00:02:27;2.80;;;1.98;;
5054;SDS011;13829;48.990;8.346;2023-09-30T00:04:55;3.92;;;2.17;;
5054;SDS011;13829;48.990;8.346;2023-09-30T00:07:22;4.25;;;2.10;;
5054;SDS011;13829;48.990;8.346;2023-09-30T00:09:50;6.30;;;2.90;;
5054;SDS011;13829;48.990;8.346;2023-09-30T00:12:17;2.72;;;2.05;;
5054;SDS011;13829;48.990;8.346;2023-09-30T00:14:44;3.70;;;2.40;;
5054;SDS011;13829;48.990;8.346;2023-09-30T00:17:13;2.55;;;2.17;;
5054;SDS011;13829;48.990;8.346;2023-09-30T00:19:40;3.78;;;2.10;;
5054;SDS011;13829;48.990;8.346;2023-09-30T00:22:07;3.10;;;1.98;;
5054;SDS011;13829;48.990;8.346;2023-09-30T00:24:34;5.53;;;2.33;;
5054;SDS011;13829;48.990;8.346;2023-09-30T00:27:03;5.10;;;2.30;;
5054;SDS011;13829;48.990;8.346;2023-09-30T00:29:30;4.22;;;1.98;;
5054;SDS011;13829;48.990;8.346;2023-09-30T00:31:56;3.88;;;2.25;;
5054;SDS011;13829;48.990;8.346;2023-09-30T00:34:23;3.38;;;2.47;;
5054;SDS011;13829;48.990;8.346;2023-09-30T00:36:50;3.35;;;2.35;;
5054;SDS011;13829;48.990;8.346;2023-09-30T00:39:17;3.83;;;2.35;;
5054;SDS011;13829;48.990;8.346;2023-09-30T00:41:44;3.70;;;2.25;;
5054;SDS011;13829;48.990;8.346;2023-09-30T00:44:12;3.88;;;2.20;;
5054;SDS011;13829;48.990;8.346;2023-09-30T00:46:39;4.47;;;2.47;;
5054;SDS011;13829;48.990;8.346;2023-09-30T00:49:08;3.03;;;2.00;;
5054;SDS011;13829;48.990;8.346;2023-09-30T00:51:35;3.45;;;2.10;;
5054;SDS011;13829;48.990;8.346;2023-09-30T00:54:04;2.70;;;2.27;;
5054;SDS011;13829;48.990;8.346;2023-09-30T00:56:33;2.67;;;1.83;;
5054;SDS011;13829;48.990;8.346;2023-09-30T00:59:08;7.32;;;2.40;;
5054;SDS011;13829;48.990;8.346;2023-09-30T01:01:37;4.15;;;2.35;;
5054;SDS011;13829;48.990;8.346;2023-09-30T01:04:04;3.53;;;2.10;;
5054;SDS011;13829;48.990;8.346;2023-09-30T01:06:33;3.83;;;2.60;;
5054;SDS011;13829;48.990;8.346;2023-09-30T01:08:59;3.40;;;2.35;;
5054;SDS011;13829;48.990;8.346;2023-09-30T01:11:26;5.13;;;2.50;;
5054;SDS011;13829;48.990;8.346;2023-09-30T01:13:54;2.63;;;2.00;;
5054;SDS011;13829;48.990;8.346;2023-09-30T01:16:22;3.93;;;2.50;;
5054;SDS011;13829;48.990;8.346;2023-09-30T01:18:51;4.83;;;2.30;;
5054;SDS011;13829;48.990;8.346;2023-09-30T01:21:18;4.50;;;2.27;;
5054;SDS011;13829;48.990;8.346;2023-09-30T01:23:48;3.37;;;2.30;;
5054;SDS011;13829;48.990;8.346;2023-09-30T01:26:15;4.03;;;2.50;;
5054;SDS011;13829;48.990;8.346;2023-09-30T01:28:42;3.77;;;2.30;;
5054;SDS011;13829;48.990;8.346;2023-09-30T01:31:09;5.00;;;2.10;;
5054;SDS011;13829;48.990;8.346;2023-09-30T01:33:36;4.97;;;2.40;;
5054;SDS011;13829;48.990;8.346;2023-09-30T01:36:03;2.23;;;1.70;;
5054;SDS011;13829;48.990;8.346;2023-09-30T01:38:31;3.97;;;2.10;;
5054;SDS011;13829;48.990;8.346;2023-09-30T01:40:59;4.30;;;2.53;;
5054;SDS011;13829;48.990;8.346;2023-09-30T01:43:26;4.67;;;2.37;;
5054;SDS011;13829;48.990;8.346;2023-09-30T01:45:55;3.23;;;2.27;;
5054;SDS011;13829;48.990;8.346;2023-09-30T01:48:23;4.93;;;2.47;;
5054;SDS011;13829;48.990;8.346;2023-09-30T01:50:50;3.87;;;2.40;;
5054;SDS011;13829;48.990;8.346;2023-09-30T01:53:16;3.20;;;2.40;;
5054;SDS011;13829;48.990;8.346;2023-09-30T01:55:43;4.20;;;2.53;;
5054;SDS011;13829;48.990;8.346;2023-09-30T01:58:12;3.07;;;2.30;;
5054;SDS011;13829;48.990;8.346;2023-09-30T02:00:39;3.03;;;2.40;;
5054;SDS011;13829;48.990;8.346;2023-09-30T02:03:06;3.47;;;2.00;;
5054;SDS011;13829;48.990;8.346;2023-09-30T02:05:33;2.57;;;2.20;;
5054;SDS011;13829;48.990;8.346;2023-09-30T02:08:01;7.23;;;2.90;;
5054;SDS011;13829;48.990;8.346;2023-09-30T02:10:30;4.50;;;2.57;;
5054;SDS011;13829;48.990;8.346;2023-09-30T02:12:58;4.13;;;2.23;;
5054;SDS011;13829;48.990;8.346;2023-09-30T02:15:26;2.63;;;1.90;;
5054;SDS011;13829;48.990;8.346;2023-09-30T02:17:53;4.60;;;2.77;;
5054;SDS011;13829;48.990;8.346;2023-09-30T02:20:20;3.90;;;2.33;;
5054;SDS011;13829;48.990;8.346;2023-09-30T02:22:50;4.00;;;2.53;;
5054;SDS011;13829;48.990;8.346;2023-09-30T02:25:19;3.47;;;2.35;;
5054;SDS011;13829;48.990;8.346;2023-09-30T02:27:46;4.28;;;2.47;;
5054;SDS011;13829;48.990;8.346;2023-09-30T02:30:14;3.78;;;2.20;;
5054;SDS011;13829;48.990;8.346;2023-09-30T02:32:43;2.60;;;2.20;;
5054;SDS011;13829;48.990;8.346;2023-09-30T02:35:12;3.80;;;2.57;;
5054;SDS011;13829;48.990;8.346;2023-09-30T02:37:40;4.47;;;2.37;;
5054;SDS011;13829;48.990;8.346;2023-09-30T02:40:07;3.37;;;2.70;;
5054;SDS011;13829;48.990;8.346;2023-09-30T02:42:35;4.50;;;2.50;;
5054;SDS011;13829;48.990;8.346;2023-09-30T02:45:03;4.53;;;2.37;;
5054;SDS011;13829;48.990;8.346;2023-09-30T02:47:31;2.73;;;2.17;;
5054;SDS011;13829;48.990;8.346;2023-09-30T02:50:00;4.67;;;2.53;;
5054;SDS011;13829;48.990;8.346;2023-09-30T02:52:29;4.70;;;2.42;;
5054;SDS011;13829;48.990;8.346;2023-09-30T02:54:57;4.73;;;2.40;;
5054;SDS011;13829;48.990;8.346;2023-09-30T02:57:24;3.10;;;2.37;;
5054;SDS011;13829;48.990;8.346;2023-09-30T02:59:53;4.33;;;2.43;;
5054;SDS011;13829;48.990;8.346;2023-09-30T03:02:21;3.70;;;2.03;;
5054;SDS011;13829;48.990;8.346;2023-09-30T03:04:48;10.30;;;3.23;;
5054;SDS011;13829;48.990;8.346;2023-09-30T03:07:18;4.40;;;2.10;;
5054;SDS011;13829;48.990;8.346;2023-09-30T03:09:46;4.33;;;2.80;;
5054;SDS011;13829;48.990;8.346;2023-09-30T03:12:13;4.50;;;2.70;;
5054;SDS011;13829;48.990;8.346;2023-09-30T03:14:40;6.67;;;2.87;;
5054;SDS011;13829;48.990;8.346;2023-09-30T03:17:07;5.60;;;3.00;;
5054;SDS011;13829;48.990;8.346;2023-09-30T03:19:36;4.97;;;2.70;;
5054;SDS011;13829;48.990;8.346;2023-09-30T03:22:04;2.73;;;2.40;;
5054;SDS011;13829;48.990;8.346;2023-09-30T03:24:37;4.33;;;2.50;;
5054;SDS011;13829;48.990;8.346;2023-09-30T03:27:04;3.07;;;2.43;;
5054;SDS011;13829;48.990;8.346;2023-09-30T03:29:32;5.17;;;3.07;;
5054;SDS011;13829;48.990;8.346;2023-09-30T03:32:01;4.03;;;2.47;;
5054;SDS011;13829;48.990;8.346;2023-09-30T03:34:28;4.00;;;2.60;;
5054;SDS011;13829;48.990;8.346;2023-09-30T03:36:55;2.47;;;2.20;;
5054;SDS011;13829;48.990;8.346;2023-09-30T03:39:24;5.77;;;2.83;;
5054;SDS011;13829;48.990;8.346;2023-09-30T03:41:54;2.73;;;2.30;;
5054;SDS011;13829;48.990;8.346;2023-09-30T03:44:23;3.17;;;2.40;;
5054;SDS011;13829;48.990;8.346;2023-09-30T03:46:50;3.03;;;2.30;;
5054;SDS011;13829;48.990;8.346;2023-09-30T03:49:17;4.60;;;2.40;;
5054;SDS011;13829;48.990;8.346;2023-09-30T03:51:46;3.67;;;2.40;;
5054;SDS011;13829;48.990;8.346;2023-09-30T03:54:15;3.63;;;2.40;;
5054;SDS011;13829;48.990;8.346;2023-09-30T03:56:43;3.33;;;2.30;;
5054;SDS011;13829;48.990;8.346;2023-09-30T03:59:13;4.27;;;2.73;;
5054;SDS011;13829;48.990;8.346;2023-09-30T04:01:41;6.97;;;2.70;;
5054;SDS011;13829;48.990;8.346;2023-09-30T04:04:09;3.70;;;2.63;;
5054;SDS011;13829;48.990;8.346;2023-09-30T04:06:36;3.30;;;2.90;;
5054;SDS011;13829;48.990;8.346;2023-09-30T04:09:04;3.40;;;2.60;;
5054;SDS011;13829;48.990;8.346;2023-09-30T04:11:35;4.77;;;2.80;;
5054;SDS011;13829;48.990;8.346;2023-09-30T04:14:03;6.37;;;3.37;;
5054;SDS011;13829;48.990;8.346;2023-09-30T04:16:32;6.47;;;2.83;;
5054;SDS011;13829;48.990;8.346;2023-09-30T04:19:02;6.20;;;4.17;;
5054;SDS011;13829;48.990;8.346;2023-09-30T04:21:29;5.87;;;3.60;;
5054;SDS011;13829;48.990;8.346;2023-09-30T04:23:59;8.63;;;3.93;;
5054;SDS011;13829;48.990;8.346;2023-09-30T04:26:26;8.87;;;4.83;;
5054;SDS011;13829;48.990;8.346;2023-09-30T04:28:53;7.13;;;4.67;;
5054;SDS011;13829;48.990;8.346;2023-09-30T04:31:20;4.40;;;3.77;;
5054;SDS011;13829;48.990;8.346;2023-09-30T04:33:50;7.17;;;4.33;;
5054;SDS011;13829;48.990;8.346;2023-09-30T04:36:18;6.27;;;3.93;;
5054;SDS011;13829;48.990;8.346;2023-09-30T04:38:45;6.17;;;4.07;;
5054;SDS011;13829;48.990;8.346;2023-09-30T04:41:12;5.27;;;3.63;;
5054;SDS011;13829;48.990;8.346;2023-09-30T04:43:40;4.67;;;3.90;;
5054;SDS011;13829;48.990;8.346;2023-09-30T04:46:08;6.30;;;4.60;;
5054;SDS011;13829;48.990;8.346;2023-09-30T04:48:37;10.13;;;5.27;;
5054;SDS011;13829;48.990;8.346;2023-09-30T04:51:07;8.90;;;5.47;;
5054;SDS011;13829;48.990;8.346;2023-09-30T04:53:36;9.17;;;5.23;;
5054;SDS011;13829;48.990;8.346;2023-09-30T04:56:04;7.47;;;4.73;;
5054;SDS011;13829;48.990;8.346;2023-09-30T04:58:31;7.63;;;5.13;;
5054;SDS011;13829;48.990;8.346;2023-09-30T05:00:57;6.43;;;4.37;;
5054;SDS011;13829;48.990;8.346;2023-09-30T05:03:24;7.00;;;4.80;;
5054;SDS011;13829;48.990;8.346;2023-09-30T05:05:51;6.27;;;4.87;;
5054;SDS011;13829;48.990;8.346;2023-09-30T05:08:22;7.80;;;4.40;;
5054;SDS011;13829;48.990;8.346;2023-09-30T05:10:49;5.93;;;4.70;;
5054;SDS011;13829;48.990;8.346;2023-09-30T05:13:16;6.20;;;4.00;;
5054;SDS011;13829;48.990;8.346;2023-09-30T05:15:43;8.17;;;4.50;;
5054;SDS011;13829;48.990;8.346;2023-09-30T05:18:11;6.77;;;4.77;;
5054;SDS011;13829;48.990;8.346;2023-09-30T05:20:38;5.70;;;4.60;;
5054;SDS011;13829;48.990;8.346;2023-09-30T05:23:06;7.00;;;5.00;;
5054;SDS011;13829;48.990;8.346;2023-09-30T05:25:34;8.03;;;5.37;;
5054;SDS011;13829;48.990;8.346;2023-09-30T05:28:02;6.43;;;4.80;;
5054;SDS011;13829;48.990;8.346;2023-09-30T05:30:30;7.33;;;4.80;;
5054;SDS011;13829;48.990;8.346;2023-09-30T05:32:58;7.83;;;5.23;;
5054;SDS011;13829;48.990;8.346;2023-09-30T05:35:25;6.00;;;4.67;;
5054;SDS011;13829;48.990;8.346;2023-09-30T05:37:53;10.17;;;5.30;;
5054;SDS011;13829;48.990;8.346;2023-09-30T05:40:21;10.20;;;5.20;;
5054;SDS011;13829;48.990;8.346;2023-09-30T05:42:51;6.43;;;5.20;;
5054;SDS011;13829;48.990;8.346;2023-09-30T05:45:21;8.83;;;5.03;;
5054;SDS011;13829;48.990;8.346;2023-09-30T05:47:49;9.20;;;5.20;;
5054;SDS011;13829;48.990;8.346;2023-09-30T05:50:17;5.63;;;4.40;;
5054;SDS011;13829;48.990;8.346;2023-09-30T05:52:49;8.33;;;4.80;;
5054;SDS011;13829;48.990;8.346;2023-09-30T05:55:16;8.33;;;4.60;;
5054;SDS011;13829;48.990;8.346;2023-09-30T05:57:45;8.00;;;5.20;;
5054;SDS011;13829;48.990;8.346;2023-09-30T06:00:14;6.03;;;5.03;;
5054;SDS011;13829;48.990;8.346;2023-09-30T06:02:53;6.07;;;5.03;;
5054;SDS011;13829;48.990;8.346;2023-09-30T06:05:20;5.70;;;4.87;;
5054;SDS011;13829;48.990;8.346;2023-09-30T06:07:48;8.70;;;5.63;;
5054;SDS011;13829;48.990;8.346;2023-09-30T06:10:15;7.07;;;4.80;;
5054;SDS011;13829;48.990;8.346;2023-09-30T06:12:43;8.07;;;4.93;;
5054;SDS011;13829;48.990;8.346;2023-09-30T06:15:12;6.57;;;4.70;;
5054;SDS011;13829;48.990;8.346;2023-09-30T06:17:46;6.10;;;4.63;;
5054;SDS011;13829;48.990;8.346;2023-09-30T06:20:17;7.00;;;5.50;;
5054;SDS011;13829;48.990;8.346;2023-09-30T06:22:43;9.70;;;5.57;;
5054;SDS011;13829;48.990;8.346;2023-09-30T06:25:12;6.93;;;5.50;;
5054;SDS011;13829;48.990;8.346;2023-09-30T06:27:41;10.67;;;6.30;;
5054;SDS011;13829;48.990;8.346;2023-09-30T06:30:08;11.63;;;5.43;;
5054;SDS011;13829;48.990;8.346;2023-09-30T06:32:38;7.43;;;6.00;;
5054;SDS011;13829;48.990;8.346;2023-09-30T06:35:07;7.40;;;5.20;;
5054;SDS011;13829;48.990;8.346;2023-09-30T06:37:36;9.80;;;6.20;;
5054;SDS011;13829;48.990;8.346;2023-09-30T06:40:04;6.73;;;5.50;;
5054;SDS011;13829;48.990;8.346;2023-09-30T06:42:34;7.07;;;5.10;;
5054;SDS011;13829;48.990;8.346;2023-09-30T06:45:02;6.17;;;4.87;;
5054;SDS011;13829;48.990;8.346;2023-09-30T06:47:31;9.87;;;5.77;;
5054;SDS011;13829;48.990;8.346;2023-09-30T06:50:00;10.70;;;5.50;;
5054;SDS011;13829;48.990;8.346;2023-09-30T06:52:32;9.50;;;5.33;;
5054;SDS011;13829;48.990;8.346;2023-09-30T06:55:00;8.53;;;4.77;;
5054;SDS011;13829;48.990;8.346;2023-09-30T06:57:29;9.73;;;6.20;;
5054;SDS011;13829;48.990;8.346;2023-09-30T06:59:57;11.07;;;6.03;;
5054;SDS011;13829;48.990;8.346;2023-09-30T07:02:24;6.93;;;5.30;;
5054;SDS011;13829;48.990;8.346;2023-09-30T07:04:51;8.70;;;5.78;;
5054;SDS011;13829;48.990;8.346;2023-09-30T07:07:19;8.07;;;5.80;;
5054;SDS011;13829;48.990;8.346;2023-09-30T07:09:46;9.00;;;5.57;;
5054;SDS011;13829;48.990;8.346;2023-09-30T07:12:14;8.23;;;5.50;;
5054;SDS011;13829;48.990;8.346;2023-09-30T07:14:41;10.75;;;6.30;;
5054;SDS011;13829;48.990;8.346;2023-09-30T07:17:08;11.55;;;5.97;;
5054;SDS011;13829;48.990;8.346;2023-09-30T07:19:34;9.55;;;6.22;;
5054;SDS011;13829;48.990;8.346;2023-09-30T07:22:03;18.70;;;6.85;;
5054;SDS011;13829;48.990;8.346;2023-09-30T07:24:31;12.98;;;6.85;;
5054;SDS011;13829;48.990;8.346;2023-09-30T07:26:58;6.88;;;6.03;;
5054;SDS011;13829;48.990;8.346;2023-09-30T07:29:25;9.65;;;6.72;;
5054;SDS011;13829;48.990;8.346;2023-09-30T07:31:52;8.00;;;6.22;;
5054;SDS011;13829;48.990;8.346;2023-09-30T07:34:19;13.88;;;7.47;;
5054;SDS011;13829;48.990;8.346;2023-09-30T07:36:46;16.50;;;7.68;;
5054;SDS011;13829;48.990;8.346;2023-09-30T07:39:13;18.00;;;7.50;;
5054;SDS011;13829;48.990;8.346;2023-09-30T07:41:41;22.33;;;8.60;;
5054;SDS011;13829;48.990;8.346;2023-09-30T07:44:08;14.70;;;7.63;;
5054;SDS011;13829;48.990;8.346;2023-09-30T07:46:35;15.52;;;7.30;;
5054;SDS011;13829;48.990;8.346;2023-09-30T07:49:02;14.30;;;8.05;;
5054;SDS011;13829;48.990;8.346;2023-09-30T07:51:32;12.30;;;7.45;;
5054;SDS011;13829;48.990;8.346;2023-09-30T07:53:59;24.75;;;8.40;;
5054;SDS011;13829;48.990;8.346;2023-09-30T07:56:25;9.68;;;6.55;;
5054;SDS011;13829;48.990;8.346;2023-09-30T07:58:54;9.98;;;6.20;;
5054;SDS011;13829;48.990;8.346;2023-09-30T08:01:21;9.38;;;6.65;;
5054;SDS011;13829;48.990;8.346;2023-09-30T08:03:48;19.63;;;7.80;;
5054;SDS011;13829;48.990;8.346;2023-09-30T08:06:15;15.00;;;7.43;;
5054;SDS011;13829;48.990;8.346;2023-09-30T08:08:42;14.43;;;8.05;;
5054;SDS011;13829;48.990;8.346;2023-09-30T08:11:09;11.05;;;7.25;;
5054;SDS011;13829;48.990;8.346;2023-09-30T08:13:36;10.77;;;6.38;;
5054;SDS011;13829;48.990;8.346;2023-09-30T08:16:04;11.65;;;7.43;;
5054;SDS011;13829;48.990;8.346;2023-09-30T08:18:32;11.35;;;8.13;;
5054;SDS011;13829;48.990;8.346;2023-09-30T08:20:59;12.73;;;7.95;;
5054;SDS011;13829;48.990;8.346;2023-09-30T08:23:26;11.18;;;6.93;;
5054;SDS011;13829;48.990;8.346;2023-09-30T08:25:53;10.85;;;8.52;;
5054;SDS011;13829;48.990;8.346;2023-09-30T08:28:24;10.77;;;8.45;;
5054;SDS011;13829;48.990;8.346;2023-09-30T08:30:51;14.05;;;8.40;;
5054;SDS011;13829;48.990;8.346;2023-09-30T08:33:23;11.13;;;7.00;;
5054;SDS011;13829;48.990;8.346;2023-09-30T08:35:52;13.73;;;8.70;;
5054;SDS011;13829;48.990;8.346;2023-09-30T08:38:20;12.05;;;7.40;;
5054;SDS011;13829;48.990;8.346;2023-09-30T08:40:47;10.38;;;7.28;;
5054;SDS011;13829;48.990;8.346;2023-09-30T08:43:18;10.63;;;7.80;;
5054;SDS011;13829;48.990;8.346;2023-09-30T08:45:52;14.68;;;8.38;;
5054;SDS011;13829;48.990;8.346;2023-09-30T08:48:20;12.77;;;7.22;;
5054;SDS011;13829;48.990;8.346;2023-09-30T08:50:52;14.55;;;7.40;;
5054;SDS011;13829;48.990;8.346;2023-09-30T08:53:20;12.80;;;7.20;;
5054;SDS011;13829;48.990;8.346;2023-09-30T08:55:49;10.10;;;8.02;;
5054;SDS011;13829;48.990;8.346;2023-09-30T08:58:20;11.40;;;7.28;;
5054;SDS011;13829;48.990;8.346;2023-09-30T09:00:52;9.82;;;6.82;;
5054;SDS011;13829;48.990;8.346;2023-09-30T09:03:19;17.10;;;7.88;;
5054;SDS011;13829;48.990;8.346;2023-09-30T09:05:50;11.02;;;7.10;;
5054;SDS011;13829;48.990;8.346;2023-09-30T09:08:21;12.32;;;7.38;;
5054;SDS011;13829;48.990;8.346;2023-09-30T09:10:58;10.05;;;6.07;;
5054;SDS011;13829;48.990;8.346;2023-09-30T09:13:29;8.95;;;5.95;;
5054;SDS011;13829;48.990;8.346;2023-09-30T09:16:14;11.57;;;8.00;;
5054;SDS011;13829;48.990;8.346;2023-09-30T09:18:44;12.88;;;7.30;;
5054;SDS011;13829;48.990;8.346;2023-09-30T09:21:14;11.07;;;6.93;;
5054;SDS011;13829;48.990;8.346;2023-09-30T09:23:43;11.52;;;6.25;;
5054;SDS011;13829;48.990;8.346;2023-09-30T09:26:11;14.98;;;7.55;;
5054;SDS011;13829;48.990;8.346;2023-09-30T09:28:49;10.38;;;7.00;;
5054;SDS011;13829;48.990;8.346;2023-09-30T09:31:19;11.02;;;6.30;;
5054;SDS011;13829;48.990;8.346;2023-09-30T09:33:50;8.60;;;6.40;;
5054;SDS011;13829;48.990;8.346;2023-09-30T09:36:19;9.43;;;6.05;;
5054;SDS011;13829;48.990;8.346;2023-09-30T09:38:47;9.73;;;6.35;;
5054;SDS011;13829;48.990;8.346;2023-09-30T09:41:18;8.15;;;6.10;;
5054;SDS011;13829;48.990;8.346;2023-09-30T09:43:47;8.70;;;5.55;;
5054;SDS011;13829;48.990;8.346;2023-09-30T09:46:16;7.25;;;5.00;;
5054;SDS011;13829;48.990;8.346;2023-09-30T09:48:44;8.13;;;5.55;;
5054;SDS011;13829;48.990;8.346;2023-09-30T09:51:12;8.80;;;5.50;;
5054;SDS011;13829;48.990;8.346;2023-09-30T09:53:41;10.90;;;5.60;;
5054;SDS011;13829;48.990;8.346;2023-09-30T09:56:09;9.27;;;5.32;;
5054;SDS011;13829;48.990;8.346;2023-09-30T09:58:38;7.07;;;5.03;;
5054;SDS011;13829;48.990;8.346;2023-09-30T10:01:07;10.73;;;4.93;;
5054;SDS011;13829;48.990;8.346;2023-09-30T10:03:37;9.98;;;4.90;;
5054;SDS011;13829;48.990;8.346;2023-09-30T10:06:04;7.57;;;4.43;;
5054;SDS011;13829;48.990;8.346;2023-09-30T10:08:35;7.85;;;4.95;;
5054;SDS011;13829;48.990;8.346;2023-09-30T10:11:14;7.63;;;4.63;;
5054;SDS011;13829;48.990;8.346;2023-09-30T10:13:50;7.90;;;4.82;;
5054;SDS011;13829;48.990;8.346;2023-09-30T10:19:15;9.85;;;4.53;;
5054;SDS011;13829;48.990;8.346;2023-09-30T10:24:51;8.40;;;4.97;;
5054;SDS011;13829;48.990;8.346;2023-09-30T10:27:35;8.65;;;4.13;;
5054;SDS011;13829;48.990;8.346;2023-09-30T10:30:08;7.60;;;4.47;;
5054;SDS011;13829;48.990;8.346;2023-09-30T10:35:45;8.25;;;5.00;;
5054;SDS011;13829;48.990;8.346;2023-09-30T10:41:08;7.55;;;4.70;;
5054;SDS011;13829;48.990;8.346;2023-09-30T10:43:37;9.05;;;5.20;;
5054;SDS011;13829;48.990;8.346;2023-09-30T10:51:59;7.47;;;4.97;;
5054;SDS011;13829;48.990;8.346;2023-09-30T10:54:27;11.00;;;4.95;;
5054;SDS011;13829;48.990;8.346;2023-09-30T10:56:57;8.68;;;5.13;;
5054;SDS011;13829;48.990;8.346;2023-09-30T10:59:26;6.05;;;4.38;;
5054;SDS011;13829;48.990;8.346;2023-09-30T11:01:55;8.45;;;5.03;;
5054;SDS011;13829;48.990;8.346;2023-09-30T11:04:23;9.02;;;5.07;;
5054;SDS011;13829;48.990;8.346;2023-09-30T11:06:52;9.50;;;5.15;;
5054;SDS011;13829;48.990;8.346;2023-09-30T11:09:20;10.10;;;4.82;;
5054;SDS011;13829;48.990;8.346;2023-09-30T11:11:49;7.20;;;4.85;;
5054;SDS011;13829;48.990;8.346;2023-09-30T11:14:21;8.13;;;5.07;;
5054;SDS011;13829;48.990;8.346;2023-09-30T11:16:50;8.20;;;4.97;;
5054;SDS011;13829;48.990;8.346;2023-09-30T11:19:20;7.28;;;4.90;;
5054;SDS011;13829;48.990;8.346;2023-09-30T11:21:48;10.57;;;5.30;;
5054;SDS011;13829;48.990;8.346;2023-09-30T11:24:16;8.95;;;5.22;;
5054;SDS011;13829;48.990;8.346;2023-09-30T11:26:43;6.57;;;4.88;;
5054;SDS011;13829;48.990;8.346;2023-09-30T11:29:12;9.77;;;5.40;;
5054;SDS011;13829;48.990;8.346;2023-09-30T11:31:43;7.63;;;4.35;;
5054;SDS011;13829;48.990;8.346;2023-09-30T11:34:13;10.65;;;5.10;;
5054;SDS011;13829;48.990;8.346;2023-09-30T11:36:47;8.40;;;4.80;;
5054;SDS011;13829;48.990;8.346;2023-09-30T11:39:21;8.63;;;4.93;;
5054;SDS011;13829;48.990;8.346;2023-09-30T11:41:49;8.40;;;4.22;;
5054;SDS011;13829;48.990;8.346;2023-09-30T11:44:17;12.30;;;4.70;;
5054;SDS011;13829;48.990;8.346;2023-09-30T11:46:50;7.90;;;4.40;;
5054;SDS011;13829;48.990;8.346;2023-09-30T11:49:25;7.75;;;4.28;;
5054;SDS011;13829;48.990;8.346;2023-09-30T11:51:57;5.47;;;3.75;;
5054;SDS011;13829;48.990;8.346;2023-09-30T11:54:30;7.20;;;4.75;;
5054;SDS011;13829;48.990;8.346;2023-09-30T11:56:58;6.28;;;4.35;;
5054;SDS011;13829;48.990;8.346;2023-09-30T11:59:26;8.20;;;4.97;;
5054;SDS011;13829;48.990;8.346;2023-09-30T12:01:54;8.68;;;5.05;;
5054;SDS011;13829;48.990;8.346;2023-09-30T12:04:22;5.95;;;4.00;;
5054;SDS011;13829;48.990;8.346;2023-09-30T12:06:49;7.32;;;4.30;;
5054;SDS011;13829;48.990;8.346;2023-09-30T12:09:16;9.90;;;4.70;;
5054;SDS011;13829;48.990;8.346;2023-09-30T12:11:47;8.23;;;4.65;;
5054;SDS011;13829;48.990;8.346;2023-09-30T12:14:14;6.45;;;4.78;;
5054;SDS011;13829;48.990;8.346;2023-09-30T12:16:42;8.75;;;4.35;;
5054;SDS011;13829;48.990;8.346;2023-09-30T12:19:12;8.27;;;4.63;;
5054;SDS011;13829;48.990;8.346;2023-09-30T12:21:40;9.00;;;3.97;;
5054;SDS011;13829;48.990;8.346;2023-09-30T12:24:08;10.20;;;4.53;;
5054;SDS011;13829;48.990;8.346;2023-09-30T12:26:36;6.45;;;4.28;;
5054;SDS011;13829;48.990;8.346;2023-09-30T12:29:05;8.27;;;4.97;;
5054;SDS011;13829;48.990;8.346;2023-09-30T12:31:34;8.30;;;4.53;;
5054;SDS011;13829;48.990;8.346;2023-09-30T12:34:01;8.23;;;4.57;;
5054;SDS011;13829;48.990;8.346;2023-09-30T12:36:29;10.30;;;4.68;;
5054;SDS011;13829;48.990;8.346;2023-09-30T12:38:57;9.73;;;4.97;;
5054;SDS011;13829;48.990;8.346;2023-09-30T12:41:24;8.93;;;4.70;;
5054;SDS011;13829;48.990;8.346;2023-09-30T12:43:51;9.38;;;4.93;;
5054;SDS011;13829;48.990;8.346;2023-09-30T12:46:18;8.63;;;4.55;;
5054;SDS011;13829;48.990;8.346;2023-09-30T12:48:45;11.35;;;5.03;;
5054;SDS011;13829;48.990;8.346;2023-09-30T12:51:13;8.20;;;4.35;;
5054;SDS011;13829;48.990;8.346;2023-09-30T12:53:41;9.07;;;4.88;;
5054;SDS011;13829;48.990;8.346;2023-09-30T12:56:08;9.40;;;4.38;;
5054;SDS011;13829;48.990;8.346;2023-09-30T12:58:35;8.45;;;4.85;;
5054;SDS011;13829;48.990;8.346;2023-09-30T13:01:03;7.78;;;4.60;;
5054;SDS011;13829;48.990;8.346;2023-09-30T13:03:31;7.65;;;5.03;;
5054;SDS011;13829;48.990;8.346;2023-09-30T13:05:58;7.53;;;4.60;;
5054;SDS011;13829;48.990;8.346;2023-09-30T13:08:25;7.78;;;4.68;;
5054;SDS011;13829;48.990;8.346;2023-09-30T13:10:53;11.05;;;5.45;;
5054;SDS011;13829;48.990;8.346;2023-09-30T13:13:20;10.00;;;4.65;;
5054;SDS011;13829;48.990;8.346;2023-09-30T13:15:47;7.78;;;5.15;;
5054;SDS011;13829;48.990;8.346;2023-09-30T13:18:14;10.00;;;5.38;;
5054;SDS011;13829;48.990;8.346;2023-09-30T13:20:41;6.78;;;4.60;;
5054;SDS011;13829;48.990;8.346;2023-09-30T13:23:07;9.63;;;5.43;;
5054;SDS011;13829;48.990;8.346;2023-09-30T13:25:34;8.68;;;5.03;;
5054;SDS011;13829;48.990;8.346;2023-09-30T13:28:03;8.40;;;4.68;;
5054;SDS011;13829;48.990;8.346;2023-09-30T13:30:30;7.60;;;4.93;;
5054;SDS011;13829;48.990;8.346;2023-09-30T13:32:57;9.70;;;5.70;;
5054;SDS011;13829;48.990;8.346;2023-09-30T13:35:24;10.07;;;4.97;;
5054;SDS011;13829;48.990;8.346;2023-09-30T13:37:51;7.63;;;5.10;;
5054;SDS011;13829;48.990;8.346;2023-09-30T13:40:17;7.68;;;5.07;;
5054;SDS011;13829;48.990;8.346;2023-09-30T13:42:44;10.23;;;5.93;;
5054;SDS011;13829;48.990;8.346;2023-09-30T13:45:13;10.57;;;5.95;;
5054;SDS011;13829;48.990;8.346;2023-09-30T13:47:42;9.82;;;5.90;;
5054;SDS011;13829;48.990;8.346;2023-09-30T13:50:09;10.48;;;5.63;;
5054;SDS011;13829;48.990;8.346;2023-09-30T13:52:36;10.48;;;5.85;;
5054;SDS011;13829;48.990;8.346;2023-09-30T13:55:03;8.90;;;5.70;;
5054;SDS011;13829;48.990;8.346;2023-09-30T13:57:31;13.68;;;6.00;;
5054;SDS011;13829;48.990;8.346;2023-09-30T13:59:58;10.05;;;6.28;;
5054;SDS011;13829;48.990;8.346;2023-09-30T14:02:26;9.77;;;5.75;;
5054;SDS011;13829;48.990;8.346;2023-09-30T14:04:53;8.90;;;5.53;;
5054;SDS011;13829;48.990;8.346;2023-09-30T14:07:20;7.93;;;4.90;;
5054;SDS011;13829;48.990;8.346;2023-09-30T14:09:48;10.52;;;5.70;;
5054;SDS011;13829;48.990;8.346;2023-09-30T14:12:15;10.40;;;6.00;;
5054;SDS011;13829;48.990;8.346;2023-09-30T14:14:42;9.63;;;5.95;;
5054;SDS011;13829;48.990;8.346;2023-09-30T14:17:09;10.38;;;6.68;;
5054;SDS011;13829;48.990;8.346;2023-09-30T14:19:38;9.35;;;6.03;;
5054;SDS011;13829;48.990;8.346;2023-09-30T14:22:05;10.65;;;5.68;;
5054;SDS011;13829;48.990;8.346;2023-09-30T14:24:34;11.35;;;6.75;;
5054;SDS011;13829;48.990;8.346;2023-09-30T14:27:02;10.00;;;5.38;;
5054;SDS011;13829;48.990;8.346;2023-09-30T14:29:29;8.80;;;6.05;;
5054;SDS011;13829;48.990;8.346;2023-09-30T14:31:57;9.88;;;5.80;;
5054;SDS011;13829;48.990;8.346;2023-09-30T14:34:24;12.43;;;6.75;;
5054;SDS011;13829;48.990;8.346;2023-09-30T14:36:52;11.95;;;6.40;;
5054;SDS011;13829;48.990;8.346;2023-09-30T14:39:20;11.23;;;6.22;;
5054;SDS011;13829;48.990;8.346;2023-09-30T14:41:48;7.90;;;5.50;;
5054;SDS011;13829;48.990;8.346;2023-09-30T14:44:15;9.10;;;5.47;;
5054;SDS011;13829;48.990;8.346;2023-09-30T14:46:42;12.98;;;6.22;;
5054;SDS011;13829;48.990;8.346;2023-09-30T14:49:09;8.52;;;5.82;;
5054;SDS011;13829;48.990;8.346;2023-09-30T14:51:36;10.63;;;6.15;;
5054;SDS011;13829;48.990;8.346;2023-09-30T14:54:05;9.50;;;5.90;;
5054;SDS011;13829;48.990;8.346;2023-09-30T14:56:33;9.45;;;5.97;;
5054;SDS011;13829;48.990;8.346;2023-09-30T14:58:59;10.20;;;6.20;;
5054;SDS011;13829;48.990;8.346;2023-09-30T15:01:27;11.65;;;6.35;;
5054;SDS011;13829;48.990;8.346;2023-09-30T15:03:54;9.02;;;5.68;;
5054;SDS011;13829;48.990;8.346;2023-09-30T15:06:21;11.35;;;6.28;;
5054;SDS011;13829;48.990;8.346;2023-09-30T15:08:49;14.73;;;6.68;;
5054;SDS011;13829;48.990;8.346;2023-09-30T15:11:18;10.60;;;5.75;;
5054;SDS011;13829;48.990;8.346;2023-09-30T15:13:44;10.73;;;6.47;;
5054;SDS011;13829;48.990;8.346;2023-09-30T15:16:15;10.65;;;6.20;;
5054;SDS011;13829;48.990;8.346;2023-09-30T15:18:44;8.40;;;5.43;;
5054;SDS011;13829;48.990;8.346;2023-09-30T15:21:12;10.15;;;6.10;;